In Rescue
 
Open Full Screen Window  High Contrast Mode
May 13, 2021 10:00 AM CDT
Weather Information
Wind Direction
  ---
Wind Speed
  00 kt (0 mph)
Wind Gust
  00 kt (0 mph)
Altimeter
30.30 in
Visibility
10 SM
Temperature
11° C
52° F
Dewpoint
06° C
43° F
Humidity
72%
Sky Condition
Clear
VFR

METAR KDYT 131500Z AUTO 00000KT 10SM CLR 11/06 A3030 RMK AO2

FAA Disclaimer: The data displayed is for advisory purposes only and is not to be used for flight planning or operations.